createdAt,value
2019-01-31T00:01:08.989Z,99564.59
2019-01-31T00:03:54.754Z,99576.81
2019-01-31T00:06:17.939Z,99567.98
2019-01-31T00:08:46.375Z,99576.05
2019-01-31T00:11:05.073Z,99574.02
2019-01-31T00:13:33.528Z,99580.02
2019-01-31T00:16:07.510Z,99585.60
2019-01-31T00:18:39.081Z,99584.38
2019-01-31T00:21:11.883Z,99588.36
2019-01-31T00:24:07.250Z,99594.04
2019-01-31T00:26:54.900Z,99591.19
2019-01-31T00:29:19.956Z,99595.58
2019-01-31T00:32:06.059Z,99592.95
2019-01-31T00:35:10.780Z,99596.82
2019-01-31T00:37:45.077Z,99604.94
2019-01-31T00:40:25.505Z,99608.19
2019-01-31T00:43:15.661Z,99609.63
2019-01-31T00:46:21.714Z,99612.44
2019-01-31T00:48:52.421Z,99611.30
2019-01-31T00:51:36.283Z,99624.36
2019-01-31T00:54:07.811Z,99627.40
2019-01-31T00:56:46.570Z,99647.11
2019-01-31T00:59:49.570Z,99642.61
2019-01-31T01:02:40.319Z,99640.20
2019-01-31T01:05:28.931Z,99634.49
2019-01-31T01:08:11.708Z,99634.09
2019-01-31T01:11:01.858Z,99637.83
2019-01-31T01:13:38.920Z,99638.28
2019-01-31T01:16:00.552Z,99642.51
2019-01-31T01:18:14.590Z,99651.07
2019-01-31T01:21:08.233Z,99648.70
2019-01-31T01:23:40.922Z,99651.36
2019-01-31T01:26:42.887Z,99660.44
2019-01-31T01:29:10.679Z,99661.52
2019-01-31T01:31:49.361Z,99659.28
2019-01-31T01:34:31.055Z,99658.56
2019-01-31T01:36:53.506Z,99659.39
2019-01-31T01:39:32.681Z,99666.45
2019-01-31T01:41:54.868Z,99668.55
2019-01-31T01:44:24.236Z,99668.78
2019-01-31T01:47:11.554Z,99671.55
2019-01-31T01:49:40.609Z,99670.91
2019-01-31T01:52:23.695Z,99672.32
2019-01-31T01:55:17.915Z,99677.20
2019-01-31T01:58:03.509Z,99677.93
2019-01-31T02:01:12.312Z,99682.60
2019-01-31T02:03:52.696Z,99699.52
2019-01-31T02:06:37.952Z,99693.46
2019-01-31T02:09:34.073Z,99704.72
2019-01-31T02:12:24.976Z,99701.06
2019-01-31T02:15:02.162Z,99712.09
2019-01-31T02:17:29.975Z,99707.81
2019-01-31T02:20:02.808Z,99702.13
2019-01-31T02:22:21.927Z,99704.50
2019-01-31T02:25:01.422Z,99703.88
2019-01-31T02:28:08.027Z,99709.09
2019-01-31T02:30:58.816Z,99705.98
2019-01-31T02:33:42.568Z,99710.64
2019-01-31T02:36:39.285Z,99712.75
2019-01-31T02:39:13.204Z,99705.98
2019-01-31T02:41:33.203Z,99713.57
2019-01-31T02:44:04.991Z,99715.64
2019-01-31T02:46:39.387Z,99720.60
2019-01-31T02:48:59.392Z,99708.67
2019-01-31T02:51:38.018Z,99704.88
2019-01-31T02:54:16.341Z,99702.02
2019-01-31T02:57:03.558Z,99710.87
2019-01-31T02:59:40.930Z,99705.75
2019-01-31T03:02:07.618Z,99705.89
2019-01-31T03:04:28.105Z,99711.08
2019-01-31T03:07:29.677Z,99711.76
2019-01-31T03:10:09.518Z,99709.80
2019-01-31T03:12:41.690Z,99711.35
2019-01-31T03:14:54.301Z,99715.73
2019-01-31T03:17:53.725Z,99726.14
2019-01-31T03:20:32.486Z,99719.42
2019-01-31T03:23:31.221Z,99725.54
2019-01-31T03:25:56.180Z,99726.45
2019-01-31T03:28:48.771Z,99734.09
2019-01-31T03:31:33.002Z,99726.34
2019-01-31T03:34:31.690Z,99734.23
2019-01-31T03:37:11.986Z,99725.69
2019-01-31T03:40:06.833Z,99720.77
2019-01-31T03:42:52.428Z,99723.83
2019-01-31T03:45:11.737Z,99714.70
2019-01-31T03:47:57.247Z,99706.62
2019-01-31T03:50:17.071Z,99704.75
2019-01-31T03:52:52.308Z,99710.84
2019-01-31T03:55:18.877Z,99695.97
2019-01-31T03:57:43.992Z,99697.42
2019-01-31T04:00:07.810Z,99697.02
2019-01-31T04:03:07.241Z,99702.61
2019-01-31T04:05:39.462Z,99706.77
2019-01-31T04:07:46.662Z,99707.34
2019-01-31T04:09:55.914Z,99708.28
2019-01-31T04:12:02.877Z,99719.09
2019-01-31T04:14:10.575Z,99708.80
2019-01-31T04:16:17.979Z,99712.03
2019-01-31T04:18:25.084Z,99718.02
2019-01-31T04:20:32.475Z,99715.96
2019-01-31T04:22:40.459Z,99708.24
2019-01-31T04:24:47.491Z,99716.67
2019-01-31T04:26:54.758Z,99718.58
2019-01-31T04:29:02.108Z,99718.45
2019-01-31T04:31:09.985Z,99722.62
2019-01-31T04:33:17.200Z,99719.36
2019-01-31T04:35:24.537Z,99717.55
2019-01-31T04:37:32.238Z,99720.83
2019-01-31T04:39:40.828Z,99711.11
2019-01-31T04:41:48.739Z,99720.49
2019-01-31T04:43:56.751Z,99715.86
2019-01-31T04:46:04.369Z,99719.45
2019-01-31T04:48:12.472Z,99724.35
2019-01-31T04:50:19.642Z,99712.23
2019-01-31T04:52:26.956Z,99721.31
2019-01-31T04:54:34.410Z,99722.42
2019-01-31T04:56:41.730Z,99723.72
2019-01-31T04:58:48.996Z,99721.55
2019-01-31T05:00:56.242Z,99722.32
2019-01-31T05:03:04.260Z,99726.70
2019-01-31T05:05:11.786Z,99724.12
2019-01-31T05:07:19.421Z,99715.76
2019-01-31T05:09:27.100Z,99710.67
2019-01-31T05:11:34.214Z,99720.09
2019-01-31T05:13:42.084Z,99715.23
2019-01-31T05:15:49.970Z,99705.00
2019-01-31T05:17:57.839Z,99706.58
2019-01-31T05:20:05.930Z,99708.84
2019-01-31T05:22:13.840Z,99709.44
2019-01-31T05:24:20.987Z,99707.37
2019-01-31T05:26:28.203Z,99710.66
2019-01-31T05:28:35.514Z,99704.64
2019-01-31T05:30:42.892Z,99708.12
2019-01-31T05:32:50.408Z,99703.80
2019-01-31T05:34:58.237Z,99703.69
2019-01-31T05:37:05.425Z,99704.75
2019-01-31T05:39:12.931Z,99715.15
2019-01-31T05:41:21.204Z,99724.62
2019-01-31T05:43:28.264Z,99723.06
2019-01-31T05:45:35.704Z,99720.81
2019-01-31T05:47:43.846Z,99723.53
2019-01-31T05:49:51.818Z,99726.84
2019-01-31T05:51:59.156Z,99712.75
2019-01-31T05:54:06.429Z,99720.34
2019-01-31T05:56:13.898Z,99712.11
2019-01-31T05:58:21.334Z,99711.27
2019-01-31T06:00:32.390Z,99719.50
2019-01-31T06:02:39.687Z,99716.59
2019-01-31T06:04:46.756Z,99711.58
2019-01-31T06:06:54.223Z,99714.99
2019-01-31T06:09:02.189Z,99719.25
2019-01-31T06:11:09.638Z,99722.20
2019-01-31T06:13:16.968Z,99721.48
2019-01-31T06:15:24.238Z,99723.64
2019-01-31T06:17:31.596Z,99721.64
2019-01-31T06:19:39.666Z,99719.30
2019-01-31T06:21:46.946Z,99723.84
2019-01-31T06:23:54.240Z,99716.27
2019-01-31T06:26:01.686Z,99712.90
2019-01-31T06:28:09.087Z,99720.09
2019-01-31T06:30:17.562Z,99720.58
2019-01-31T06:32:24.806Z,99721.30
2019-01-31T06:34:33.094Z,99721.76
2019-01-31T06:36:40.668Z,99706.30
2019-01-31T06:38:48.293Z,99707.56
2019-01-31T06:40:55.468Z,99710.42
2019-01-31T06:43:02.811Z,99708.45
2019-01-31T06:45:12.485Z,99713.94
2019-01-31T06:47:19.459Z,99727.51
2019-01-31T06:49:26.776Z,99723.98
2019-01-31T06:51:34.073Z,99725.62
2019-01-31T06:53:41.890Z,99713.91
2019-01-31T06:55:48.994Z,99716.09
2019-01-31T06:57:56.970Z,99717.39
2019-01-31T07:00:04.283Z,99710.55
2019-01-31T07:02:11.648Z,99712.72
2019-01-31T07:04:19.025Z,99722.15
2019-01-31T07:06:26.649Z,99731.42
2019-01-31T07:08:34.155Z,99721.25
2019-01-31T07:10:41.336Z,99722.03
2019-01-31T07:12:49.358Z,99715.92
2019-01-31T07:14:57.454Z,99729.91
2019-01-31T07:18:06.783Z,99739.81
2019-01-31T07:20:15.709Z,99739.94
2019-01-31T07:22:23.212Z,99739.12
2019-01-31T07:24:31.342Z,99740.19
2019-01-31T07:26:41.460Z,99743.30
2019-01-31T07:28:47.751Z,99742.67
2019-01-31T07:30:54.941Z,99740.57
2019-01-31T07:33:02.231Z,99740.38
2019-01-31T07:35:10.627Z,99742.23
2019-01-31T07:37:18.471Z,99744.33
2019-01-31T07:39:25.522Z,99739.86
2019-01-31T07:41:41.027Z,99742.98
2019-01-31T07:43:42.183Z,99746.47
2019-01-31T07:45:51.464Z,99748.45
2019-01-31T07:47:59.053Z,99745.55
2019-01-31T07:50:06.562Z,99744.58
2019-01-31T07:52:13.724Z,99746.48
2019-01-31T07:54:21.064Z,99745.62
2019-01-31T07:56:28.336Z,99750.64
2019-01-31T07:58:36.760Z,99757.52
2019-01-31T08:00:44.643Z,99749.81
2019-01-31T08:02:52.111Z,99750.23
2019-01-31T08:04:59.330Z,99752.83
2019-01-31T08:07:06.643Z,99756.08
2019-01-31T08:09:13.977Z,99747.41
2019-01-31T08:11:21.496Z,99745.16
2019-01-31T08:13:29.136Z,99744.09
2019-01-31T08:15:36.457Z,99748.83
2019-01-31T08:17:43.980Z,99749.28
2019-01-31T08:19:56.503Z,99757.33
2019-01-31T08:22:07.018Z,99714.21
2019-01-31T08:24:15.351Z,99766.45
2019-01-31T08:26:22.644Z,99762.55
2019-01-31T08:28:30.266Z,99753.59
2019-01-31T08:30:39.669Z,99756.09
2019-01-31T08:32:47.323Z,99746.05
2019-01-31T08:34:54.655Z,99744.42
2019-01-31T08:37:02.030Z,99746.27
2019-01-31T08:39:10.938Z,99742.48
2019-01-31T08:41:18.282Z,99736.82
2019-01-31T08:43:25.617Z,99744.50
2019-01-31T08:45:33.142Z,99742.15
2019-01-31T08:47:41.060Z,99738.70
2019-01-31T08:49:48.133Z,99740.50
2019-01-31T08:51:55.413Z,99739.31
2019-01-31T08:54:09.434Z,99731.84
2019-01-31T08:56:16.893Z,99738.59
2019-01-31T08:58:24.744Z,99743.88
2019-01-31T09:00:32.620Z,99745.56
2019-01-31T09:02:39.759Z,99745.66
2019-01-31T09:04:46.652Z,99750.90
2019-01-31T09:06:53.907Z,99748.54
2019-01-31T09:09:01.540Z,99735.70
2019-01-31T09:11:09.877Z,99745.90
2019-01-31T09:13:17.503Z,99745.19
2019-01-31T09:15:25.932Z,99742.43
2019-01-31T09:17:33.257Z,99735.98
2019-01-31T09:19:40.599Z,99738.62
2019-01-31T09:22:15.971Z,99743.25
2019-01-31T09:25:00.842Z,99741.80
2019-01-31T09:27:51.005Z,99750.52
2019-01-31T09:31:00.109Z,99748.23
2019-01-31T09:33:47.864Z,99743.38
2019-01-31T09:36:24.185Z,99748.91
2019-01-31T09:39:19.456Z,99748.87
2019-01-31T09:41:57.593Z,99747.33
2019-01-31T09:44:28.286Z,99745.02
2019-01-31T09:47:10.743Z,99755.43
2019-01-31T09:49:51.852Z,99748.87
2019-01-31T09:52:40.916Z,99748.03
2019-01-31T09:55:17.910Z,99754.33
2019-01-31T09:58:04.112Z,99753.03
2019-01-31T10:00:51.072Z,99764.08
2019-01-31T10:03:26.692Z,99755.14
2019-01-31T10:05:59.181Z,99755.38
2019-01-31T10:08:40.996Z,99763.49
2019-01-31T10:11:26.310Z,99770.11
2019-01-31T10:13:56.589Z,99765.41
2019-01-31T10:16:39.429Z,99784.25
2019-01-31T10:19:32.523Z,99789.02
2019-01-31T10:22:14.754Z,99782.00
2019-01-31T10:24:44.404Z,99782.90
2019-01-31T10:27:31.678Z,99783.03
2019-01-31T10:30:15.104Z,99782.63
2019-01-31T10:33:16.679Z,99786.02
2019-01-31T10:35:42.473Z,99787.55
2019-01-31T10:38:10.157Z,99787.30
2019-01-31T10:40:45.552Z,99790.42
2019-01-31T10:43:24.743Z,99787.02
2019-01-31T10:45:45.403Z,99784.28
2019-01-31T10:48:47.636Z,99786.24
2019-01-31T10:51:38.962Z,99783.55
2019-01-31T10:54:13.486Z,99777.78
2019-01-31T10:56:47.369Z,99777.31
2019-01-31T10:59:19.130Z,99775.27
2019-01-31T11:02:02.128Z,99770.50
2019-01-31T11:04:30.795Z,99663.94
2019-01-31T11:07:07.245Z,99776.97
2019-01-31T11:09:31.034Z,99783.15
2019-01-31T11:12:24.153Z,99775.94
2019-01-31T11:15:10.058Z,99780.05
2019-01-31T11:17:45.411Z,99788.19
2019-01-31T11:20:06.934Z,99795.56
2019-01-31T11:22:55.946Z,99795.05
2019-01-31T11:25:14.765Z,99797.50
2019-01-31T11:28:00.341Z,99802.25
2019-01-31T11:30:31.942Z,99799.47
2019-01-31T11:33:16.033Z,99802.67
2019-01-31T11:36:02.082Z,99799.26
2019-01-31T11:38:37.154Z,99805.99
2019-01-31T11:41:25.937Z,99805.62
2019-01-31T11:43:58.731Z,99808.67
2019-01-31T11:46:26.864Z,99807.00
2019-01-31T11:49:04.831Z,99813.91
2019-01-31T11:51:45.444Z,99817.03
2019-01-31T11:54:19.318Z,99830.57
2019-01-31T11:56:36.498Z,99824.27
2019-01-31T11:59:00.824Z,99836.34
2019-01-31T12:01:10.178Z,99824.70
2019-01-31T12:03:17.444Z,99820.03
2019-01-31T12:05:25.013Z,99826.76
2019-01-31T12:07:32.308Z,99826.19
2019-01-31T12:09:40.659Z,99825.78
2019-01-31T12:11:47.959Z,99831.88
2019-01-31T12:13:55.325Z,99831.17
2019-01-31T12:16:03.618Z,99834.11
2019-01-31T12:18:11.427Z,99827.77
2019-01-31T12:20:19.249Z,99828.74
2019-01-31T12:22:26.713Z,99839.91
2019-01-31T12:24:34.299Z,99836.45
2019-01-31T12:26:41.753Z,99841.13
2019-01-31T12:28:51.054Z,99840.67
2019-01-31T12:30:58.794Z,99839.85
2019-01-31T12:33:06.097Z,99851.17
2019-01-31T12:35:13.764Z,99848.12
2019-01-31T12:37:21.119Z,99845.09
2019-01-31T12:39:30.404Z,99841.94
2019-01-31T12:41:38.485Z,99846.88
2019-01-31T12:43:46.176Z,99846.78
2019-01-31T12:45:58.975Z,99842.66
2019-01-31T12:48:06.895Z,99842.38
2019-01-31T12:50:18.546Z,99844.66
2019-01-31T12:52:25.947Z,99829.77
2019-01-31T12:54:33.385Z,99834.78
2019-01-31T12:56:40.614Z,99839.77
2019-01-31T12:58:48.194Z,99846.37
2019-01-31T13:00:55.445Z,99841.25
2019-01-31T13:03:03.343Z,99838.34
2019-01-31T13:05:11.813Z,99830.72
2019-01-31T13:07:19.277Z,99831.58
2019-01-31T13:09:28.406Z,99839.52
2019-01-31T13:11:35.970Z,99840.67
2019-01-31T13:13:46.088Z,99840.44
2019-01-31T13:15:52.034Z,99843.27
2019-01-31T13:18:00.650Z,99849.28
2019-01-31T13:20:12.335Z,99851.91
2019-01-31T13:22:19.667Z,99856.36
2019-01-31T13:24:27.057Z,99861.38
2019-01-31T13:26:34.666Z,99864.80
2019-01-31T13:28:42.803Z,99865.56
2019-01-31T13:30:54.228Z,99872.80
2019-01-31T13:33:03.066Z,99878.66
2019-01-31T13:35:20.939Z,99875.42
2019-01-31T13:37:30.916Z,99885.66
2019-01-31T13:39:39.025Z,99883.36
2019-01-31T13:41:46.464Z,99883.67
2019-01-31T13:43:57.634Z,99881.76
2019-01-31T13:46:02.836Z,99885.38
2019-01-31T13:48:15.374Z,99883.23
2019-01-31T13:50:22.835Z,99882.62
2019-01-31T13:52:31.058Z,99887.39
2019-01-31T13:54:40.770Z,99888.54
2019-01-31T13:56:48.322Z,99900.08
2019-01-31T13:58:55.837Z,99905.61
2019-01-31T14:01:05.939Z,99905.24
2019-01-31T14:03:14.917Z,99906.28
2019-01-31T14:05:22.410Z,99916.83
2019-01-31T14:07:29.616Z,99921.34
2019-01-31T14:09:37.896Z,99921.25
2019-01-31T14:11:46.683Z,99914.66
2019-01-31T14:13:53.955Z,99916.80
2019-01-31T14:16:06.621Z,99916.97
2019-01-31T14:18:15.185Z,99926.28
2019-01-31T14:20:24.519Z,99921.34
2019-01-31T14:22:42.612Z,99922.61
2019-01-31T14:24:43.688Z,99930.42
2019-01-31T14:26:50.591Z,99928.48
2019-01-31T14:28:57.943Z,99928.91
2019-01-31T14:31:06.511Z,99930.32
2019-01-31T14:33:20.918Z,99933.70
2019-01-31T14:35:28.232Z,99929.55
2019-01-31T14:37:35.375Z,99931.11
2019-01-31T14:39:42.878Z,99933.89
2019-01-31T14:41:50.210Z,99937.48
2019-01-31T14:43:57.612Z,99945.05
2019-01-31T14:46:08.843Z,99936.73
2019-01-31T14:48:16.313Z,99943.48
2019-01-31T14:50:29.498Z,99942.07
2019-01-31T14:52:41.540Z,99933.76
2019-01-31T14:54:50.444Z,99937.34
2019-01-31T14:56:59.785Z,99947.15
2019-01-31T14:59:07.073Z,99946.77
2019-01-31T15:01:14.312Z,99937.70
2019-01-31T15:03:21.866Z,99943.45
2019-01-31T15:05:41.385Z,99946.90
2019-01-31T15:07:47.743Z,99961.63
2019-01-31T15:09:55.316Z,99954.09
2019-01-31T15:12:03.499Z,99950.26
2019-01-31T15:14:11.506Z,99953.20
2019-01-31T15:16:18.648Z,99953.66
2019-01-31T15:18:26.054Z,99961.09
2019-01-31T15:20:44.669Z,99954.30
2019-01-31T15:22:51.893Z,99964.58
2019-01-31T15:25:00.341Z,99957.55
2019-01-31T15:27:08.022Z,99958.92
2019-01-31T15:29:15.560Z,99961.95
2019-01-31T15:31:23.337Z,99965.61
2019-01-31T15:33:31.635Z,99970.20
2019-01-31T15:35:38.983Z,99973.23
2019-01-31T15:37:46.413Z,99966.03
2019-01-31T15:39:53.767Z,99985.73
2019-01-31T15:42:01.164Z,99984.38
2019-01-31T15:44:08.564Z,99981.75
2019-01-31T15:46:17.857Z,99991.57
2019-01-31T15:48:25.032Z,99985.92
2019-01-31T15:50:32.620Z,99991.15
2019-01-31T15:52:40.240Z,99987.91
2019-01-31T15:54:47.618Z,99991.42
2019-01-31T15:56:55.480Z,99993.92
2019-01-31T15:59:02.798Z,99989.41
2019-01-31T16:01:11.939Z,99992.55
2019-01-31T16:03:26.150Z,99986.02
2019-01-31T16:05:41.198Z,99986.46
2019-01-31T16:07:47.917Z,99992.56
2019-01-31T16:09:55.181Z,99999.67
2019-01-31T16:12:02.628Z,100000.11
2019-01-31T16:14:10.127Z,100001.69
2019-01-31T16:16:20.017Z,99996.67
2019-01-31T16:18:26.318Z,100004.13
2019-01-31T16:20:33.640Z,100003.91
2019-01-31T16:22:40.735Z,100004.62
2019-01-31T16:24:48.038Z,100010.37
2019-01-31T16:26:56.650Z,100007.13
2019-01-31T16:29:20.849Z,100010.68
2019-01-31T16:31:29.505Z,100008.77
2019-01-31T16:33:37.065Z,100006.13
2019-01-31T16:35:49.667Z,100001.33
2019-01-31T16:37:57.803Z,99998.07
2019-01-31T16:40:06.939Z,100006.05
2019-01-31T16:42:14.655Z,100005.75
2019-01-31T16:44:21.988Z,100000.90
2019-01-31T16:46:29.420Z,99999.80
2019-01-31T16:48:37.570Z,99992.48
2019-01-31T16:50:46.136Z,99994.27
2019-01-31T16:52:53.880Z,99986.66
2019-01-31T16:55:02.154Z,99980.88
2019-01-31T16:57:09.542Z,99977.86
2019-01-31T16:59:17.040Z,99977.52
2019-01-31T17:01:24.673Z,99978.11
2019-01-31T17:03:31.703Z,99978.53
2019-01-31T17:05:38.902Z,99973.47
2019-01-31T17:07:46.910Z,99972.49
2019-01-31T17:09:55.505Z,99975.38
2019-01-31T17:12:03.628Z,99974.92
2019-01-31T17:14:11.113Z,99979.14
2019-01-31T17:16:18.363Z,99975.35
2019-01-31T17:18:25.603Z,99966.20
2019-01-31T17:20:41.738Z,99972.91
2019-01-31T17:22:49.017Z,99969.70
2019-01-31T17:25:15.827Z,99969.30
2019-01-31T17:27:28.477Z,99963.95
2019-01-31T17:29:35.651Z,99961.63
2019-01-31T17:31:42.945Z,99958.34
2019-01-31T17:33:50.535Z,99953.81
2019-01-31T17:35:58.562Z,99952.68
2019-01-31T17:38:05.990Z,99953.67
2019-01-31T17:40:24.942Z,99949.35
2019-01-31T17:42:32.301Z,99943.55
2019-01-31T17:44:40.134Z,99945.13
2019-01-31T17:46:47.725Z,99939.92
2019-01-31T17:48:58.963Z,99945.30
2019-01-31T17:51:07.157Z,99933.26
2019-01-31T17:53:14.314Z,99933.23
2019-01-31T17:55:22.930Z,99933.09
2019-01-31T17:57:33.570Z,99926.73
2019-01-31T17:59:41.072Z,99925.75
2019-01-31T18:01:48.356Z,99919.39
2019-01-31T18:03:55.688Z,99913.05
2019-01-31T18:06:03.079Z,99907.88
2019-01-31T18:08:10.284Z,99910.70
2019-01-31T18:10:20.122Z,99912.27
2019-01-31T18:12:28.561Z,99903.53
2019-01-31T18:14:36.055Z,99907.91
2019-01-31T18:16:43.232Z,99905.26
2019-01-31T18:18:50.419Z,99897.27
2019-01-31T18:20:58.157Z,99885.87
2019-01-31T18:23:06.167Z,99887.42
2019-01-31T18:25:13.707Z,99899.03
2019-01-31T18:27:21.844Z,99895.27
2019-01-31T18:29:30.205Z,99904.51
2019-01-31T18:31:44.520Z,99906.92
2019-01-31T18:33:55.482Z,99912.72
2019-01-31T18:36:05.674Z,99910.19
2019-01-31T18:38:12.369Z,99908.20
2019-01-31T18:40:21.693Z,99909.69
2019-01-31T18:42:29.777Z,99905.03
2019-01-31T18:44:37.570Z,99910.42
2019-01-31T18:46:45.201Z,99905.36
2019-01-31T18:48:53.240Z,99901.47
2019-01-31T18:51:04.482Z,99904.89
2019-01-31T18:53:11.757Z,99904.01
2019-01-31T18:55:19.687Z,99904.34
2019-01-31T18:57:26.886Z,99892.42
2019-01-31T18:59:35.765Z,99898.03
2019-01-31T19:01:43.297Z,99888.73
2019-01-31T19:03:50.728Z,99889.86
2019-01-31T19:05:58.237Z,99882.68
2019-01-31T19:08:09.090Z,99877.38
2019-01-31T19:10:15.806Z,99887.60
2019-01-31T19:12:31.499Z,99874.97
2019-01-31T19:14:38.970Z,99881.14
2019-01-31T19:16:47.194Z,99880.09
2019-01-31T19:18:54.415Z,99877.16
2019-01-31T19:21:01.582Z,99873.77
2019-01-31T19:23:10.236Z,99871.95
2019-01-31T19:25:21.929Z,99873.51
2019-01-31T19:27:29.350Z,99864.37
2019-01-31T19:29:36.670Z,99771.45
2019-01-31T19:31:44.194Z,99861.13
2019-01-31T19:33:57.372Z,99854.84
2019-01-31T19:36:05.269Z,99851.77
2019-01-31T19:38:12.981Z,99850.94
2019-01-31T19:40:23.092Z,99848.89
2019-01-31T19:42:30.500Z,99849.20
2019-01-31T19:44:38.299Z,99846.77
2019-01-31T19:46:46.299Z,99839.25
2019-01-31T19:48:53.738Z,99844.27
2019-01-31T19:51:00.954Z,99829.54
2019-01-31T19:53:08.690Z,99825.64
2019-01-31T19:55:16.334Z,99824.06
2019-01-31T19:57:25.249Z,99816.70
2019-01-31T19:59:33.211Z,99814.09
2019-01-31T20:01:40.370Z,99824.97
2019-01-31T20:03:47.882Z,99826.86
2019-01-31T20:05:55.325Z,99822.06
2019-01-31T20:08:03.560Z,99817.41
2019-01-31T20:10:12.200Z,99822.84
2019-01-31T20:12:19.836Z,99826.41
2019-01-31T20:14:27.063Z,99820.11
2019-01-31T20:16:34.432Z,99811.64
2019-01-31T20:18:41.901Z,99815.63
2019-01-31T20:20:49.338Z,99820.95
2019-01-31T20:22:57.652Z,99817.28
2019-01-31T20:25:05.243Z,99825.05
2019-01-31T20:27:13.104Z,99824.13
2019-01-31T20:29:21.225Z,99819.10
2019-01-31T20:31:29.364Z,99816.78
2019-01-31T20:33:36.593Z,99810.79
2019-01-31T20:35:43.679Z,99815.47
2019-01-31T20:37:50.959Z,99812.13
2019-01-31T20:39:58.994Z,99813.56
2019-01-31T20:42:07.434Z,99816.92
2019-01-31T20:44:20.025Z,99814.25
2019-01-31T20:46:39.752Z,99814.69
2019-01-31T20:48:44.087Z,99810.00
2019-01-31T20:50:52.593Z,99810.53
2019-01-31T20:53:00.760Z,99806.53
2019-01-31T20:55:09.489Z,99804.86
2019-01-31T20:57:17.409Z,99801.10
2019-01-31T20:59:25.337Z,99799.33
2019-01-31T21:01:32.672Z,99797.17
2019-01-31T21:03:41.040Z,99791.44
2019-01-31T21:05:48.518Z,99789.83
2019-01-31T21:07:56.022Z,99800.27
2019-01-31T21:10:05.338Z,99808.33
2019-01-31T21:12:13.575Z,99812.80
2019-01-31T21:14:20.751Z,99803.47
2019-01-31T21:16:28.077Z,99814.34
2019-01-31T21:18:35.509Z,99814.78
2019-01-31T21:20:42.996Z,99817.50
2019-01-31T21:22:50.620Z,99821.81
2019-01-31T21:24:58.170Z,99809.59
2019-01-31T21:27:07.913Z,99808.95
2019-01-31T21:29:15.924Z,99816.46
2019-01-31T21:31:23.270Z,99813.33
2019-01-31T21:33:30.717Z,99800.23
2019-01-31T21:35:38.222Z,99794.30
2019-01-31T21:37:45.489Z,99791.79
2019-01-31T21:39:52.927Z,99782.09
2019-01-31T21:42:03.011Z,99781.89
2019-01-31T21:44:10.667Z,99782.31
2019-01-31T21:46:18.008Z,99775.74
2019-01-31T21:48:25.496Z,99779.21
2019-01-31T21:50:33.353Z,99772.52
2019-01-31T21:52:40.822Z,99772.58
2019-01-31T21:54:48.150Z,99773.71
2019-01-31T21:56:56.200Z,99765.86
2019-01-31T21:59:03.460Z,99766.48
2019-01-31T22:01:10.976Z,99761.70
2019-01-31T22:03:24.702Z,99759.64
2019-01-31T22:05:31.556Z,99762.05
2019-01-31T22:07:38.952Z,99755.34
2019-01-31T22:09:46.178Z,99757.13
2019-01-31T22:11:53.674Z,99756.41
2019-01-31T22:14:01.131Z,99752.86
2019-01-31T22:16:13.267Z,99757.67
2019-01-31T22:18:20.625Z,99737.00
2019-01-31T22:20:28.539Z,99734.40
2019-01-31T22:22:37.192Z,99737.22
2019-01-31T22:24:44.687Z,99732.20
2019-01-31T22:26:51.998Z,99734.58
2019-01-31T22:28:59.748Z,99732.08
2019-01-31T22:31:07.539Z,99729.27
2019-01-31T22:33:14.879Z,99724.33
2019-01-31T22:35:22.386Z,99730.37
2019-01-31T22:37:29.615Z,99727.42
2019-01-31T22:39:37.195Z,99734.30
2019-01-31T22:41:44.728Z,99730.55
2019-01-31T22:43:52.733Z,99721.17
2019-01-31T22:46:01.391Z,99722.05
2019-01-31T22:48:09.363Z,99724.42
2019-01-31T22:50:18.264Z,99720.59
2019-01-31T22:52:25.506Z,99716.95
2019-01-31T22:54:32.730Z,99720.60
2019-01-31T22:56:40.822Z,99713.94
2019-01-31T22:58:48.048Z,99712.47
2019-01-31T23:01:36.134Z,99707.77
2019-01-31T23:03:44.466Z,99708.23
2019-01-31T23:05:52.629Z,99714.70
2019-01-31T23:07:59.941Z,99709.90
2019-01-31T23:10:08.158Z,99718.14
2019-01-31T23:12:15.779Z,99716.42
2019-01-31T23:14:22.878Z,99722.89
2019-01-31T23:16:30.420Z,99725.41
2019-01-31T23:18:38.011Z,99716.00
2019-01-31T23:20:45.157Z,99717.05
2019-01-31T23:22:52.496Z,99714.09
2019-01-31T23:24:59.779Z,99702.86
2019-01-31T23:27:06.930Z,99707.95
2019-01-31T23:29:14.177Z,99709.00
2019-01-31T23:31:21.626Z,99707.30
2019-01-31T23:33:28.953Z,99707.95
2019-01-31T23:35:36.333Z,99706.92
2019-01-31T23:37:43.498Z,99699.72
2019-01-31T23:39:50.839Z,99699.31
2019-01-31T23:41:58.172Z,99698.01
2019-01-31T23:44:06.326Z,99697.89
2019-01-31T23:46:13.932Z,99698.94
2019-01-31T23:48:21.134Z,99688.16
2019-01-31T23:50:28.334Z,99684.48
2019-01-31T23:52:35.564Z,99688.34
2019-01-31T23:54:43.628Z,99680.09
2019-01-31T23:56:51.942Z,99680.27
2019-01-31T23:58:59.232Z,99669.52
